Time;durP1;ratioP1;P1;durP2;ratioP2;P2;SDS_P1;SDS_P2;PMS_P1;PMS_P2;Temp;Humidity;BMP_temperature;BMP_pressure;BME280_temperature;BME280_humidity;BME280_pressure;Samples;Min_cycle;Max_cycle;Signal;HPM_P1;HPM_P2
2023/09/30 00:01:45;;;;;;;;;;;;;;;;;;5094783;28;19924;-74
2023/09/30 00:04:10;;;;;;;;;;;;;;;;;;5094667;28;20010;-73
2023/09/30 00:06:35;;;;;;;;;;;;;;;;;;5094575;28;19916;-76
2023/09/30 00:09:01;;;;;;;;;;;;;;;;;;5094335;28;19912;-74
2023/09/30 00:11:27;;;;;;;;;;;;;;;;;;5094395;28;19916;-74
2023/09/30 00:13:52;;;;;;;;;;;;;;;;;;5094308;28;19916;-74
2023/09/30 00:16:18;;;;;;;;;;;;;;;;;;5076309;28;19977;-74
2023/09/30 00:18:44;;;;;;;;;;;;;;;;;;5093266;28;20399;-75
2023/09/30 00:21:09;;;;;;;;;;;;;;;;;;5094072;28;19959;-75
2023/09/30 00:23:35;;;;;;;;;;;;;;;;;;5094347;28;20346;-74
2023/09/30 00:26:00;;;;;;;;;;;;;;;;;;5094315;28;20053;-74
2023/09/30 00:28:26;;;;;;;;;;;;;;;;;;5098524;28;19916;-75
2023/09/30 00:30:51;;;;;;;;;;;;;;;;;;5102966;28;19959;-75
2023/09/30 00:33:16;;;;;;;;;;;;;;;;;;5102150;28;20014;-75
2023/09/30 00:35:42;;;;;;;;;;;;;;;;;;5098001;28;19916;-74
2023/09/30 00:38:08;;;;;;;;;;;;;;;;;;5094053;28;19962;-74
2023/09/30 00:40:35;;;;;;;;;;;;;;;;;;5094179;28;19916;-74
2023/09/30 00:43:01;;;;;;;;;;;;;;;;;;5093886;28;20391;-74
2023/09/30 00:45:26;;;;;;;;;;;;;;;;;;5094482;28;20019;-74
2023/09/30 00:47:51;;;;;;;;;;;;;;;;;;5093980;28;19982;-74
2023/09/30 00:50:17;;;;;;;;;;;;;;;;;;5075659;28;19963;-74
2023/09/30 00:52:42;;;;;;;;;;;;;;;;;;5075668;28;19916;-74
2023/09/30 00:55:08;;;;;;;;;;;;;;;;;;5093918;28;20362;-74
2023/09/30 00:57:34;;;;;;;;;;;;;;;;;;5093808;28;20371;-74
2023/09/30 00:59:59;;;;;;;;;;;;;;;;;;5093648;28;19923;-74
2023/09/30 01:02:25;;;;;;;;;;;;;;;;;;5093759;28;19913;-74
2023/09/30 01:04:50;;;;;;;;;;;;;;;;;;5093635;28;19917;-74
2023/09/30 01:07:16;;;;;;;;;;;;;;;;;;5093531;28;19912;-74
2023/09/30 01:09:41;;;;;;;;;;;;;;;;;;5075524;28;19924;-74
2023/09/30 01:12:08;;;;;;;;;;;;;;;;;;5075474;28;19965;-74
2023/09/30 01:14:42;;;;;;;;;;;;;;;;;;5094767;28;19920;-74
2023/09/30 01:17:13;;;;;;;;;;;;;;;;;;5096055;28;20362;-75
2023/09/30 01:19:39;;;;;;;;;;;;;;;;;;5095186;28;19916;-74
2023/09/30 01:22:05;;;;;;;;;;;;;;;;;;5093355;28;20300;-74
2023/09/30 01:24:31;;;;;;;;;;;;;;;;;;5093638;28;19966;-74
2023/09/30 01:26:56;;;;;;;;;;;;;;;;;;5093355;28;19920;-74
2023/09/30 01:29:22;;;;;;;;;;;;;;;;;;5093000;28;20371;-74
2023/09/30 01:31:47;;;;;;;;;;;;;;;;;;5093135;28;20500;-74
2023/09/30 01:34:13;;;;;;;;;;;;;;;;;;5075051;28;19969;-74
2023/09/30 01:36:38;;;;;;;;;;;;;;;;;;5075182;28;19919;-74
2023/09/30 01:39:03;;;;;;;;;;;;;;;;;;5093025;28;20295;-74
2023/09/30 01:41:29;;;;;;;;;;;;;;;;;;5075046;28;19916;-74
2023/09/30 01:43:56;;;;;;;;;;;;;;;;;;5074943;28;19923;-74
2023/09/30 01:46:22;;;;;;;;;;;;;;;;;;5075293;28;19916;-74
2023/09/30 01:48:48;;;;;;;;;;;;;;;;;;5075163;28;20390;-74
2023/09/30 01:51:13;;;;;;;;;;;;;;;;;;5074885;28;20380;-74
2023/09/30 01:53:39;;;;;;;;;;;;;;;;;;5093299;28;19920;-74
2023/09/30 01:56:04;;;;;;;;;;;;;;;;;;5092964;28;20113;-74
2023/09/30 01:58:30;;;;;;;;;;;;;;;;;;5074680;28;19917;-74
2023/09/30 02:00:55;;;;;;;;;;;;;;;;;;5074881;28;19908;-74
2023/09/30 02:03:22;;;;;;;;;;;;;;;;;;5092865;28;19923;-74
2023/09/30 02:05:48;;;;;;;;;;;;;;;;;;5074563;28;20390;-74
2023/09/30 02:08:14;;;;;;;;;;;;;;;;;;5074720;28;20340;-74
2023/09/30 02:10:42;;;;;;;;;;;;;;;;;;5092753;28;19963;-74
2023/09/30 02:13:07;;;;;;;;;;;;;;;;;;5074810;28;19966;-74
2023/09/30 02:15:33;;;;;;;;;;;;;;;;;;5092641;28;20346;-74
2023/09/30 02:18:00;;;;;;;;;;;;;;;;;;5092561;28;20387;-74
2023/09/30 02:20:25;;;;;;;;;;;;;;;;;;5074306;28;19916;-74
2023/09/30 02:22:51;;;;;;;;;;;;;;;;;;5092838;28;20329;-74
2023/09/30 02:25:16;;;;;;;;;;;;;;;;;;5092657;28;20375;-74
2023/09/30 02:27:42;;;;;;;;;;;;;;;;;;5092802;28;20372;-74
2023/09/30 02:30:07;;;;;;;;;;;;;;;;;;5092620;28;19922;-74
2023/09/30 02:32:33;;;;;;;;;;;;;;;;;;5074296;28;20261;-74
2023/09/30 02:34:58;;;;;;;;;;;;;;;;;;5074143;28;19924;-74
2023/09/30 02:37:24;;;;;;;;;;;;;;;;;;5092415;28;20332;-74
2023/09/30 02:39:49;;;;;;;;;;;;;;;;;;5074329;28;19923;-74
2023/09/30 02:42:15;;;;;;;;;;;;;;;;;;5076694;28;19923;-74
2023/09/30 02:44:40;;;;;;;;;;;;;;;;;;5077665;28;20294;-74
2023/09/30 02:47:05;;;;;;;;;;;;;;;;;;5095616;28;19916;-74
2023/09/30 02:49:31;;;;;;;;;;;;;;;;;;5095682;28;19964;-74
2023/09/30 02:51:56;;;;;;;;;;;;;;;;;;5077395;28;19920;-74
2023/09/30 02:54:21;;;;;;;;;;;;;;;;;;5095846;28;20014;-74
2023/09/30 02:56:47;;;;;;;;;;;;;;;;;;5095864;28;19916;-74
2023/09/30 02:59:12;;;;;;;;;;;;;;;;;;5095889;28;20004;-74
2023/09/30 03:01:37;;;;;;;;;;;;;;;;;;5076455;28;19912;-74
2023/09/30 03:04:03;;;;;;;;;;;;;;;;;;5073472;28;20355;-74
2023/09/30 03:06:31;;;;;;;;;;;;;;;;;;5091823;28;19916;-74
2023/09/30 03:08:56;;;;;;;;;;;;;;;;;;5091703;28;20290;-74
2023/09/30 03:11:21;;;;;;;;;;;;;;;;;;5073529;28;19912;-74
2023/09/30 03:13:47;;;;;;;;;;;;;;;;;;5092501;28;19920;-73
2023/09/30 03:16:13;;;;;;;;;;;;;;;;;;5092519;28;19922;-73
2023/09/30 03:18:38;;;;;;;;;;;;;;;;;;5092097;28;20365;-74
2023/09/30 03:21:08;;;;;;;;;;;;;;;;;;5091572;28;20010;-74
2023/09/30 03:23:34;;;;;;;;;;;;;;;;;;5091551;28;20360;-74
2023/09/30 03:25:59;;;;;;;;;;;;;;;;;;5091226;28;19927;-74
2023/09/30 03:28:25;;;;;;;;;;;;;;;;;;5091238;28;20208;-74
2023/09/30 03:30:50;;;;;;;;;;;;;;;;;;5091580;28;19916;-73
2023/09/30 03:33:15;;;;;;;;;;;;;;;;;;5091812;28;19919;-73
2023/09/30 03:35:41;;;;;;;;;;;;;;;;;;5090276;28;19908;-73
2023/09/30 03:38:09;;;;;;;;;;;;;;;;;;5091642;28;19939;-73
2023/09/30 03:40:38;;;;;;;;;;;;;;;;;;5091856;28;20312;-73
2023/09/30 03:43:03;;;;;;;;;;;;;;;;;;5091543;28;19930;-73
2023/09/30 03:45:30;;;;;;;;;;;;;;;;;;5091236;28;19912;-73
2023/09/30 03:47:55;;;;;;;;;;;;;;;;;;5089647;28;19912;-75
2023/09/30 03:50:23;;;;;;;;;;;;;;;;;;5090933;28;19912;-73
2023/09/30 03:52:49;;;;;;;;;;;;;;;;;;5091085;28;19962;-73
2023/09/30 03:55:15;;;;;;;;;;;;;;;;;;5091123;28;19916;-74
2023/09/30 03:57:40;;;;;;;;;;;;;;;;;;5091045;28;19908;-74
2023/09/30 04:00:06;;;;;;;;;;;;;;;;;;5089670;28;19973;-73
2023/09/30 04:02:37;;;;;;;;;;;;;;;;;;5090850;28;19916;-73
2023/09/30 04:05:05;;;;;;;;;;;;;;;;;;5091214;28;19915;-73
2023/09/30 04:07:30;;;;;;;;;;;;;;;;;;5090765;28;19916;-73
2023/09/30 04:09:56;;;;;;;;;;;;;;;;;;5090773;28;19995;-73
2023/09/30 04:12:23;;;;;;;;;;;;;;;;;;5090571;28;19919;-73
2023/09/30 04:14:48;;;;;;;;;;;;;;;;;;5090249;28;20360;-73
2023/09/30 04:17:14;;;;;;;;;;;;;;;;;;5090758;28;19920;-74
2023/09/30 04:19:39;;;;;;;;;;;;;;;;;;5090396;28;20000;-73
2023/09/30 04:22:04;;;;;;;;;;;;;;;;;;5089633;28;19922;-73
2023/09/30 04:24:30;;;;;;;;;;;;;;;;;;5090589;28;20010;-73
2023/09/30 04:27:02;;;;;;;;;;;;;;;;;;5090600;28;20301;-74
2023/09/30 04:29:27;;;;;;;;;;;;;;;;;;5090346;28;19919;-74
2023/09/30 04:31:52;;;;;;;;;;;;;;;;;;5072600;28;19912;-73
2023/09/30 04:34:19;;;;;;;;;;;;;;;;;;5089976;28;19916;-72
2023/09/30 04:36:44;;;;;;;;;;;;;;;;;;5090464;28;20366;-74
2023/09/30 04:39:12;;;;;;;;;;;;;;;;;;5071830;28;19973;-73
2023/09/30 04:41:41;;;;;;;;;;;;;;;;;;5090582;28;19951;-73
2023/09/30 04:44:06;;;;;;;;;;;;;;;;;;5090340;28;19923;-74
2023/09/30 04:46:32;;;;;;;;;;;;;;;;;;5071464;28;20007;-74
2023/09/30 04:48:57;;;;;;;;;;;;;;;;;;5089925;28;19966;-74
2023/09/30 04:51:25;;;;;;;;;;;;;;;;;;5090102;28;19923;-73
2023/09/30 04:53:50;;;;;;;;;;;;;;;;;;5071933;28;20375;-74
2023/09/30 04:56:16;;;;;;;;;;;;;;;;;;5089912;28;20416;-74
2023/09/30 04:58:41;;;;;;;;;;;;;;;;;;5088189;28;20640;-74
2023/09/30 05:01:08;;;;;;;;;;;;;;;;;;5089769;28;19978;-73
2023/09/30 05:03:34;;;;;;;;;;;;;;;;;;5089565;28;19939;-73
2023/09/30 05:06:00;;;;;;;;;;;;;;;;;;5089825;28;19962;-74
2023/09/30 05:08:25;;;;;;;;;;;;;;;;;;5089537;28;19951;-73
2023/09/30 05:10:51;;;;;;;;;;;;;;;;;;5089786;28;19943;-73
2023/09/30 05:13:17;;;;;;;;;;;;;;;;;;5091806;28;19912;-72
2023/09/30 05:15:42;;;;;;;;;;;;;;;;;;5092358;28;19973;-73
2023/09/30 05:18:11;;;;;;;;;;;;;;;;;;5090344;28;20396;-73
2023/09/30 05:20:37;;;;;;;;;;;;;;;;;;5088963;28;19916;-73
2023/09/30 05:23:03;;;;;;;;;;;;;;;;;;5089667;28;20485;-74
2023/09/30 05:25:28;;;;;;;;;;;;;;;;;;5089594;28;20014;-74
2023/09/30 05:27:54;;;;;;;;;;;;;;;;;;5089431;28;19927;-73
2023/09/30 05:30:20;;;;;;;;;;;;;;;;;;5089166;28;19966;-76
2023/09/30 05:32:46;;;;;;;;;;;;;;;;;;5071275;28;19973;-73
2023/09/30 05:35:12;;;;;;;;;;;;;;;;;;5089187;28;19931;-75
2023/09/30 05:37:38;;;;;;;;;;;;;;;;;;5089146;28;19912;-74
2023/09/30 05:40:09;;;;;;;;;;;;;;;;;;5089218;28;19962;-74
2023/09/30 05:42:36;;;;;;;;;;;;;;;;;;5089188;28;20015;-73
2023/09/30 05:45:04;;;;;;;;;;;;;;;;;;5089800;28;19930;-74
2023/09/30 05:47:30;;;;;;;;;;;;;;;;;;5089521;28;19916;-74
2023/09/30 05:49:55;;;;;;;;;;;;;;;;;;5089725;28;20298;-75
2023/09/30 05:52:20;;;;;;;;;;;;;;;;;;5089013;28;19919;-74
2023/09/30 05:54:46;;;;;;;;;;;;;;;;;;5088862;28;19977;-74
2023/09/30 05:57:11;;;;;;;;;;;;;;;;;;5071265;28;19920;-75
2023/09/30 05:59:36;;;;;;;;;;;;;;;;;;5089273;28;19969;-74
2023/09/30 06:02:03;;;;;;;;;;;;;;;;;;5089636;28;19923;-75
2023/09/30 06:04:28;;;;;;;;;;;;;;;;;;5088677;28;20065;-74
2023/09/30 06:06:53;;;;;;;;;;;;;;;;;;5088950;28;20014;-73
2023/09/30 06:09:19;;;;;;;;;;;;;;;;;;5088970;28;20016;-74
2023/09/30 06:11:44;;;;;;;;;;;;;;;;;;5096428;28;19919;-74
2023/09/30 06:14:09;;;;;;;;;;;;;;;;;;5109015;28;19927;-73
2023/09/30 06:16:35;;;;;;;;;;;;;;;;;;5110731;28;19926;-74
2023/09/30 06:19:00;;;;;;;;;;;;;;;;;;5112517;28;19929;-73
2023/09/30 06:21:28;;;;;;;;;;;;;;;;;;5112930;28;19915;-73
2023/09/30 06:23:54;;;;;;;;;;;;;;;;;;5112724;28;19968;-73
2023/09/30 06:26:20;;;;;;;;;;;;;;;;;;5112661;28;19932;-74
2023/09/30 06:28:47;;;;;;;;;;;;;;;;;;5112680;28;20014;-73
2023/09/30 06:31:13;;;;;;;;;;;;;;;;;;5112481;28;19922;-74
2023/09/30 06:33:39;;;;;;;;;;;;;;;;;;5112365;28;19940;-74
2023/09/30 06:36:05;;;;;;;;;;;;;;;;;;5112907;28;19927;-73
2023/09/30 06:38:30;;;;;;;;;;;;;;;;;;5112326;28;19919;-73
2023/09/30 06:40:56;;;;;;;;;;;;;;;;;;5112406;28;19915;-75
2023/09/30 06:43:21;;;;;;;;;;;;;;;;;;5112715;28;19916;-74
2023/09/30 06:45:47;;;;;;;;;;;;;;;;;;5112372;28;19916;-73
2023/09/30 06:48:12;;;;;;;;;;;;;;;;;;5112011;28;20028;-74
2023/09/30 06:50:38;;;;;;;;;;;;;;;;;;5112072;28;19968;-74
2023/09/30 06:53:05;;;;;;;;;;;;;;;;;;5093972;28;19923;-74
2023/09/30 06:55:31;;;;;;;;;;;;;;;;;;5112092;28;19972;-74
2023/09/30 06:57:57;;;;;;;;;;;;;;;;;;5112310;28;19916;-73
2023/09/30 07:00:22;;;;;;;;;;;;;;;;;;5112162;28;19922;-73
2023/09/30 07:02:47;;;;;;;;;;;;;;;;;;5112352;28;20390;-74
2023/09/30 07:05:12;;;;;;;;;;;;;;;;;;5111755;28;19918;-73
2023/09/30 07:07:39;;;;;;;;;;;;;;;;;;5112172;28;19916;-74
2023/09/30 07:10:04;;;;;;;;;;;;;;;;;;5112259;28;20018;-74
2023/09/30 07:12:31;;;;;;;;;;;;;;;;;;5113243;28;19963;-73
2023/09/30 07:14:57;;;;;;;;;;;;;;;;;;5113198;28;19927;-73
2023/09/30 07:17:22;;;;;;;;;;;;;;;;;;5111008;28;20424;-75
2023/09/30 07:19:48;;;;;;;;;;;;;;;;;;5111510;28;19916;-74
2023/09/30 07:22:13;;;;;;;;;;;;;;;;;;5093594;28;19915;-73
2023/09/30 07:24:39;;;;;;;;;;;;;;;;;;5111691;28;19916;-74
2023/09/30 07:27:04;;;;;;;;;;;;;;;;;;5111358;28;20018;-74
2023/09/30 07:29:30;;;;;;;;;;;;;;;;;;5113327;28;20259;-73
2023/09/30 07:31:55;;;;;;;;;;;;;;;;;;5110135;28;20018;-74
2023/09/30 07:34:21;;;;;;;;;;;;;;;;;;5106970;28;19959;-75
2023/09/30 07:36:46;;;;;;;;;;;;;;;;;;5110876;28;20027;-73
2023/09/30 07:39:11;;;;;;;;;;;;;;;;;;5111574;28;19990;-74
2023/09/30 07:41:37;;;;;;;;;;;;;;;;;;5111896;28;19916;-74
2023/09/30 07:44:02;;;;;;;;;;;;;;;;;;5111290;28;19916;-73
2023/09/30 07:46:28;;;;;;;;;;;;;;;;;;5111436;28;19915;-73
2023/09/30 07:48:55;;;;;;;;;;;;;;;;;;5110824;28;19944;-74
2023/09/30 07:51:20;;;;;;;;;;;;;;;;;;5111257;28;20375;-74
2023/09/30 07:53:45;;;;;;;;;;;;;;;;;;5109257;28;19919;-74
2023/09/30 07:56:11;;;;;;;;;;;;;;;;;;5111148;28;19926;-74
2023/09/30 07:58:36;;;;;;;;;;;;;;;;;;5110959;28;19912;-74
2023/09/30 08:01:02;;;;;;;;;;;;;;;;;;5111173;28;20256;-74
2023/09/30 08:03:28;;;;;;;;;;;;;;;;;;5110000;28;20320;-74
2023/09/30 08:05:53;;;;;;;;;;;;;;;;;;5111017;28;20038;-74
2023/09/30 08:08:19;;;;;;;;;;;;;;;;;;5111145;28;20272;-76
2023/09/30 08:10:44;;;;;;;;;;;;;;;;;;5110936;28;20004;-74
2023/09/30 08:13:09;;;;;;;;;;;;;;;;;;5110807;28;19916;-74
2023/09/30 08:15:35;;;;;;;;;;;;;;;;;;5110909;28;19928;-74
2023/09/30 08:18:02;;;;;;;;;;;;;;;;;;5110608;28;19965;-74
2023/09/30 08:20:27;;;;;;;;;;;;;;;;;;5092157;28;19919;-74
2023/09/30 08:22:53;;;;;;;;;;;;;;;;;;5110564;28;19926;-73
2023/09/30 08:25:18;;;;;;;;;;;;;;;;;;5110897;28;20264;-74
2023/09/30 08:27:49;;;;;;;;;;;;;;;;;;5092712;28;20351;-73
2023/09/30 08:30:14;;;;;;;;;;;;;;;;;;5110844;28;20014;-74
2023/09/30 08:32:40;;;;;;;;;;;;;;;;;;5110335;28;20007;-74
2023/09/30 08:35:06;;;;;;;;;;;;;;;;;;5110352;28;20303;-73
2023/09/30 08:37:32;;;;;;;;;;;;;;;;;;5110787;28;20038;-73
2023/09/30 08:39:58;;;;;;;;;;;;;;;;;;5109483;28;20418;-75
2023/09/30 08:42:24;;;;;;;;;;;;;;;;;;5110013;28;19916;-74
2023/09/30 08:44:50;;;;;;;;;;;;;;;;;;5110259;28;20337;-73
2023/09/30 08:47:15;;;;;;;;;;;;;;;;;;5110485;28;20035;-75
2023/09/30 08:49:41;;;;;;;;;;;;;;;;;;5091673;28;19916;-73
2023/09/30 08:52:06;;;;;;;;;;;;;;;;;;5110448;28;20419;-73
2023/09/30 08:54:31;;;;;;;;;;;;;;;;;;5110319;28;19926;-73
2023/09/30 08:56:57;;;;;;;;;;;;;;;;;;5110433;28;19923;-72
2023/09/30 08:59:22;;;;;;;;;;;;;;;;;;5110453;28;19920;-74
2023/09/30 09:01:48;;;;;;;;;;;;;;;;;;5110225;28;19912;-73
2023/09/30 09:04:14;;;;;;;;;;;;;;;;;;5091782;28;19919;-74
2023/09/30 09:06:41;;;;;;;;;;;;;;;;;;5110033;28;19955;-73
2023/09/30 09:09:06;;;;;;;;;;;;;;;;;;5110288;28;19969;-73
2023/09/30 09:11:32;;;;;;;;;;;;;;;;;;5109943;28;19916;-74
2023/09/30 09:14:00;;;;;;;;;;;;;;;;;;5110101;28;19952;-72
2023/09/30 09:16:25;;;;;;;;;;;;;;;;;;5091655;28;19923;-73
2023/09/30 09:18:51;;;;;;;;;;;;;;;;;;5109680;28;20299;-73
2023/09/30 09:21:17;;;;;;;;;;;;;;;;;;5109840;28;19920;-73
2023/09/30 09:23:43;;;;;;;;;;;;;;;;;;5110075;28;19915;-72
2023/09/30 09:26:08;;;;;;;;;;;;;;;;;;5109785;28;19919;-74
2023/09/30 09:28:33;;;;;;;;;;;;;;;;;;5109894;28;19916;-73
2023/09/30 09:30:58;;;;;;;;;;;;;;;;;;5109727;28;19919;-73
2023/09/30 09:33:24;;;;;;;;;;;;;;;;;;5109543;28;19919;-73
2023/09/30 09:35:49;;;;;;;;;;;;;;;;;;5109660;28;19916;-74
2023/09/30 09:38:15;;;;;;;;;;;;;;;;;;5108477;28;20432;-74
2023/09/30 09:40:40;;;;;;;;;;;;;;;;;;5108304;28;19920;-73
2023/09/30 09:43:05;;;;;;;;;;;;;;;;;;5109557;28;19916;-74
2023/09/30 09:45:32;;;;;;;;;;;;;;;;;;5109673;28;20360;-74
2023/09/30 09:47:58;;;;;;;;;;;;;;;;;;5090852;28;20279;-73
2023/09/30 09:50:23;;;;;;;;;;;;;;;;;;5111268;28;19919;-73
2023/09/30 09:52:50;;;;;;;;;;;;;;;;;;5113028;28;19966;-74
2023/09/30 09:55:15;;;;;;;;;;;;;;;;;;5112994;28;20026;-74
2023/09/30 09:57:41;;;;;;;;;;;;;;;;;;5113309;28;19999;-75
2023/09/30 10:00:11;;;;;;;;;;;;;;;;;;5113459;28;19969;-73
2023/09/30 10:02:37;;;;;;;;;;;;;;;;;;5113212;28;20455;-74
2023/09/30 10:05:02;;;;;;;;;;;;;;;;;;5112819;28;19961;-74
2023/09/30 10:07:28;;;;;;;;;;;;;;;;;;5113290;28;19912;-73
2023/09/30 10:09:53;;;;;;;;;;;;;;;;;;5094951;28;19923;-73
2023/09/30 10:12:19;;;;;;;;;;;;;;;;;;5092375;28;19999;-73
2023/09/30 10:14:44;;;;;;;;;;;;;;;;;;5092401;28;19920;-74
2023/09/30 10:17:10;;;;;;;;;;;;;;;;;;5092327;28;20355;-74
2023/09/30 10:19:35;;;;;;;;;;;;;;;;;;5074658;28;20283;-74
2023/09/30 10:22:01;;;;;;;;;;;;;;;;;;5092131;28;19923;-73
2023/09/30 10:24:27;;;;;;;;;;;;;;;;;;5092183;28;19948;-73
2023/09/30 10:26:52;;;;;;;;;;;;;;;;;;5092312;28;19916;-74
2023/09/30 10:29:19;;;;;;;;;;;;;;;;;;5092228;28;19973;-73
2023/09/30 10:31:44;;;;;;;;;;;;;;;;;;5105708;28;19916;-74
2023/09/30 10:34:10;;;;;;;;;;;;;;;;;;5101213;28;19927;-74
2023/09/30 10:36:35;;;;;;;;;;;;;;;;;;5097945;28;19923;-75
2023/09/30 10:39:01;;;;;;;;;;;;;;;;;;5102646;28;19916;-73
2023/09/30 10:41:26;;;;;;;;;;;;;;;;;;5100467;28;19916;-73
2023/09/30 10:43:52;;;;;;;;;;;;;;;;;;5101933;28;20397;-73
2023/09/30 10:46:17;;;;;;;;;;;;;;;;;;5101888;28;19933;-73
2023/09/30 10:48:44;;;;;;;;;;;;;;;;;;5099734;28;20013;-73
2023/09/30 10:51:10;;;;;;;;;;;;;;;;;;5092370;28;20353;-73
2023/09/30 10:53:35;;;;;;;;;;;;;;;;;;5091603;28;19927;-73
2023/09/30 10:56:01;;;;;;;;;;;;;;;;;;5092046;28;19916;-73
2023/09/30 10:58:26;;;;;;;;;;;;;;;;;;5091647;28;19912;-73
2023/09/30 11:00:51;;;;;;;;;;;;;;;;;;5091670;28;20362;-74
2023/09/30 11:03:17;;;;;;;;;;;;;;;;;;5090676;28;19916;-75
2023/09/30 11:05:42;;;;;;;;;;;;;;;;;;5092013;28;19920;-74
2023/09/30 11:08:08;;;;;;;;;;;;;;;;;;5091997;28;20326;-74
2023/09/30 11:10:33;;;;;;;;;;;;;;;;;;5092251;28;19923;-73
2023/09/30 11:12:58;;;;;;;;;;;;;;;;;;5092278;28;19913;-73
2023/09/30 11:15:24;;;;;;;;;;;;;;;;;;5091786;28;19942;-74
2023/09/30 11:17:50;;;;;;;;;;;;;;;;;;5091729;28;19965;-73
2023/09/30 11:20:15;;;;;;;;;;;;;;;;;;5073323;28;19920;-73
2023/09/30 11:22:40;;;;;;;;;;;;;;;;;;5091243;28;19916;-73
2023/09/30 11:25:06;;;;;;;;;;;;;;;;;;5073072;28;20287;-74
2023/09/30 11:27:33;;;;;;;;;;;;;;;;;;5091318;28;19959;-74
2023/09/30 11:29:58;;;;;;;;;;;;;;;;;;5091114;28;19919;-73
2023/09/30 11:32:26;;;;;;;;;;;;;;;;;;5091547;28;19920;-73
2023/09/30 11:34:52;;;;;;;;;;;;;;;;;;5091180;28;19927;-73
2023/09/30 11:37:18;;;;;;;;;;;;;;;;;;5091418;28;19920;-73
2023/09/30 11:39:43;;;;;;;;;;;;;;;;;;5090894;28;20019;-73
2023/09/30 11:42:09;;;;;;;;;;;;;;;;;;5091175;28;20259;-73
2023/09/30 11:44:34;;;;;;;;;;;;;;;;;;5072573;28;19924;-73
2023/09/30 11:47:04;;;;;;;;;;;;;;;;;;5090652;28;19922;-74
2023/09/30 11:49:29;;;;;;;;;;;;;;;;;;5090651;28;20006;-72
2023/09/30 11:51:54;;;;;;;;;;;;;;;;;;5072810;28;20007;-72
2023/09/30 11:54:21;;;;;;;;;;;;;;;;;;5090311;28;19974;-72
2023/09/30 11:56:47;;;;;;;;;;;;;;;;;;5090997;28;19916;-72
2023/09/30 11:59:12;;;;;;;;;;;;;;;;;;5072337;28;19923;-72
2023/09/30 12:01:38;;;;;;;;;;;;;;;;;;5090586;28;20048;-72
2023/09/30 12:04:03;;;;;;;;;;;;;;;;;;5090905;28;19916;-73
2023/09/30 12:06:29;;;;;;;;;;;;;;;;;;5090775;28;19916;-72
2023/09/30 12:08:54;;;;;;;;;;;;;;;;;;5090813;28;19920;-73
2023/09/30 12:11:19;;;;;;;;;;;;;;;;;;5090420;28;20007;-74
2023/09/30 12:13:48;;;;;;;;;;;;;;;;;;5088888;28;20018;-73
2023/09/30 12:16:13;;;;;;;;;;;;;;;;;;5090203;28;20738;-73
2023/09/30 12:18:39;;;;;;;;;;;;;;;;;;5090559;28;20018;-73
2023/09/30 12:21:07;;;;;;;;;;;;;;;;;;5089849;28;19916;-72
2023/09/30 12:23:33;;;;;;;;;;;;;;;;;;5090625;28;20061;-74
2023/09/30 12:25:58;;;;;;;;;;;;;;;;;;5090731;28;20011;-73
2023/09/30 12:28:24;;;;;;;;;;;;;;;;;;5090392;28;19916;-72
2023/09/30 12:30:49;;;;;;;;;;;;;;;;;;5090379;28;19916;-72
2023/09/30 12:33:15;;;;;;;;;;;;;;;;;;5090496;28;19926;-72
2023/09/30 12:35:40;;;;;;;;;;;;;;;;;;5090741;28;20020;-72
2023/09/30 12:38:05;;;;;;;;;;;;;;;;;;5090020;28;20260;-72
2023/09/30 12:40:31;;;;;;;;;;;;;;;;;;5090046;28;19923;-72
2023/09/30 12:42:57;;;;;;;;;;;;;;;;;;5090200;28;20398;-73
2023/09/30 12:45:23;;;;;;;;;;;;;;;;;;5089717;28;19920;-73
2023/09/30 12:47:52;;;;;;;;;;;;;;;;;;5090191;28;19961;-73
2023/09/30 12:50:17;;;;;;;;;;;;;;;;;;5090228;28;19969;-73
2023/09/30 12:52:43;;;;;;;;;;;;;;;;;;5090025;28;19920;-73
2023/09/30 12:55:08;;;;;;;;;;;;;;;;;;5089905;28;19923;-73
2023/09/30 12:57:33;;;;;;;;;;;;;;;;;;5089859;28;19963;-73
2023/09/30 12:59:59;;;;;;;;;;;;;;;;;;5090083;28;19923;-73
2023/09/30 13:02:24;;;;;;;;;;;;;;;;;;5089926;28;19927;-72
2023/09/30 13:04:50;;;;;;;;;;;;;;;;;;5090119;28;19917;-72
2023/09/30 13:07:15;;;;;;;;;;;;;;;;;;5090329;28;19966;-72
2023/09/30 13:09:41;;;;;;;;;;;;;;;;;;5090400;28;20372;-72
2023/09/30 13:12:06;;;;;;;;;;;;;;;;;;5090123;28;19924;-73
2023/09/30 13:14:32;;;;;;;;;;;;;;;;;;5089257;28;19924;-73
2023/09/30 13:16:57;;;;;;;;;;;;;;;;;;5089974;28;19920;-73
2023/09/30 13:19:22;;;;;;;;;;;;;;;;;;5089527;28;19924;-73
2023/09/30 13:21:48;;;;;;;;;;;;;;;;;;5089285;28;20006;-73
2023/09/30 13:24:14;;;;;;;;;;;;;;;;;;5089322;28;19970;-73
2023/09/30 13:26:39;;;;;;;;;;;;;;;;;;5088796;28;20029;-74
2023/09/30 13:29:10;;;;;;;;;;;;;;;;;;5088873;28;19963;-73
2023/09/30 13:31:37;;;;;;;;;;;;;;;;;;5089500;28;19975;-73
2023/09/30 13:34:03;;;;;;;;;;;;;;;;;;5089546;28;19927;-73
2023/09/30 13:36:30;;;;;;;;;;;;;;;;;;5088297;28;20407;-73
2023/09/30 13:38:55;;;;;;;;;;;;;;;;;;5089840;28;19920;-72
2023/09/30 13:41:21;;;;;;;;;;;;;;;;;;5089615;28;19965;-73
2023/09/30 13:43:46;;;;;;;;;;;;;;;;;;5089142;28;19920;-73
2023/09/30 13:46:12;;;;;;;;;;;;;;;;;;5089196;28;19920;-73
2023/09/30 13:48:37;;;;;;;;;;;;;;;;;;5089281;28;19942;-72
2023/09/30 13:51:03;;;;;;;;;;;;;;;;;;5089518;28;19920;-73
2023/09/30 13:53:28;;;;;;;;;;;;;;;;;;5089220;28;19916;-73
2023/09/30 13:55:53;;;;;;;;;;;;;;;;;;5088988;28;19920;-72
2023/09/30 13:58:19;;;;;;;;;;;;;;;;;;5089030;28;19966;-72
2023/09/30 14:00:44;;;;;;;;;;;;;;;;;;5089312;28;20287;-73
2023/09/30 14:03:09;;;;;;;;;;;;;;;;;;5089650;28;19968;-72
2023/09/30 14:05:35;;;;;;;;;;;;;;;;;;5089377;28;20014;-73
2023/09/30 14:08:01;;;;;;;;;;;;;;;;;;5089666;28;19924;-73
2023/09/30 14:10:28;;;;;;;;;;;;;;;;;;5089036;28;19916;-73
2023/09/30 14:12:54;;;;;;;;;;;;;;;;;;5070944;28;19914;-73
2023/09/30 14:15:20;;;;;;;;;;;;;;;;;;5088793;28;20268;-73
2023/09/30 14:17:45;;;;;;;;;;;;;;;;;;5089018;28;19930;-73
2023/09/30 14:20:12;;;;;;;;;;;;;;;;;;5088684;28;20015;-73
2023/09/30 14:22:37;;;;;;;;;;;;;;;;;;5088330;28;19916;-73
2023/09/30 14:25:02;;;;;;;;;;;;;;;;;;5088506;28;19961;-73
2023/09/30 14:27:29;;;;;;;;;;;;;;;;;;5089202;28;19982;-74
2023/09/30 14:29:55;;;;;;;;;;;;;;;;;;5089143;28;19959;-73
2023/09/30 14:32:20;;;;;;;;;;;;;;;;;;5088463;28;19951;-72
2023/09/30 14:34:45;;;;;;;;;;;;;;;;;;5088722;28;19927;-73
2023/09/30 14:37:11;;;;;;;;;;;;;;;;;;5054612;28;20445;-73
2023/09/30 14:39:36;;;;;;;;;;;;;;;;;;5091999;28;19916;-74
2023/09/30 14:42:02;;;;;;;;;;;;;;;;;;5092205;28;19951;-74
2023/09/30 14:44:27;;;;;;;;;;;;;;;;;;5091609;28;20018;-73
2023/09/30 14:46:53;;;;;;;;;;;;;;;;;;5092342;28;19962;-73
2023/09/30 14:49:18;;;;;;;;;;;;;;;;;;5092122;28;20260;-73
2023/09/30 14:51:44;;;;;;;;;;;;;;;;;;5092065;28;19916;-73
2023/09/30 14:54:09;;;;;;;;;;;;;;;;;;5091590;28;20345;-74
2023/09/30 14:56:35;;;;;;;;;;;;;;;;;;5091422;28;19969;-73
2023/09/30 14:59:00;;;;;;;;;;;;;;;;;;5092164;28;20031;-73
2023/09/30 15:01:26;;;;;;;;;;;;;;;;;;5091981;28;19920;-73
2023/09/30 15:03:51;;;;;;;;;;;;;;;;;;5092109;28;19923;-73
2023/09/30 15:06:17;;;;;;;;;;;;;;;;;;5093999;28;20336;-73
2023/09/30 15:08:42;;;;;;;;;;;;;;;;;;5093814;28;19923;-73
2023/09/30 15:11:07;;;;;;;;;;;;;;;;;;5091938;28;20006;-73
2023/09/30 15:13:33;;;;;;;;;;;;;;;;;;5092065;28;19924;-73
2023/09/30 15:15:58;;;;;;;;;;;;;;;;;;5091559;28;19916;-74
2023/09/30 15:18:24;;;;;;;;;;;;;;;;;;5091485;28;20299;-73
2023/09/30 15:20:49;;;;;;;;;;;;;;;;;;5091485;28;20379;-73
2023/09/30 15:23:15;;;;;;;;;;;;;;;;;;5091498;28;19927;-74
2023/09/30 15:25:42;;;;;;;;;;;;;;;;;;5091227;28;19916;-74
2023/09/30 15:28:07;;;;;;;;;;;;;;;;;;5091438;28;19936;-75
2023/09/30 15:30:33;;;;;;;;;;;;;;;;;;5091129;28;19920;-74
2023/09/30 15:32:58;;;;;;;;;;;;;;;;;;5091704;28;19916;-74
2023/09/30 15:35:24;;;;;;;;;;;;;;;;;;5091167;28;19928;-75
2023/09/30 15:37:49;;;;;;;;;;;;;;;;;;5091726;28;19923;-73
2023/09/30 15:40:17;;;;;;;;;;;;;;;;;;5091126;28;20389;-74
2023/09/30 15:42:42;;;;;;;;;;;;;;;;;;5091117;28;19920;-75
2023/09/30 15:45:07;;;;;;;;;;;;;;;;;;5091726;28;19920;-74
2023/09/30 15:47:33;;;;;;;;;;;;;;;;;;5091230;28;19955;-74
2023/09/30 15:49:58;;;;;;;;;;;;;;;;;;5091057;28;19920;-74
2023/09/30 15:52:23;;;;;;;;;;;;;;;;;;5091023;28;19927;-73
2023/09/30 15:54:49;;;;;;;;;;;;;;;;;;5090796;28;20434;-73
2023/09/30 15:57:14;;;;;;;;;;;;;;;;;;5091147;28;20072;-73
2023/09/30 15:59:40;;;;;;;;;;;;;;;;;;5090883;28;19912;-74
2023/09/30 16:02:05;;;;;;;;;;;;;;;;;;5090978;28;19920;-73
2023/09/30 16:04:30;;;;;;;;;;;;;;;;;;5090666;28;20289;-73
2023/09/30 16:06:56;;;;;;;;;;;;;;;;;;5090903;28;19916;-73
2023/09/30 16:09:21;;;;;;;;;;;;;;;;;;5090422;28;19931;-73
2023/09/30 16:11:48;;;;;;;;;;;;;;;;;;5091105;28;19923;-75
2023/09/30 16:14:13;;;;;;;;;;;;;;;;;;5072353;28;20367;-73
2023/09/30 16:16:39;;;;;;;;;;;;;;;;;;5090296;28;19916;-75
2023/09/30 16:19:04;;;;;;;;;;;;;;;;;;5090731;28;19955;-74
2023/09/30 16:21:30;;;;;;;;;;;;;;;;;;5090226;28;20370;-74
2023/09/30 16:23:55;;;;;;;;;;;;;;;;;;5090453;28;19924;-73
2023/09/30 16:26:21;;;;;;;;;;;;;;;;;;5090430;28;19923;-74
2023/09/30 16:28:46;;;;;;;;;;;;;;;;;;5090432;28;19939;-74
2023/09/30 16:31:11;;;;;;;;;;;;;;;;;;5090474;28;19971;-73
2023/09/30 16:33:37;;;;;;;;;;;;;;;;;;5090055;28;19916;-73
2023/09/30 16:36:02;;;;;;;;;;;;;;;;;;5090289;28;19916;-74